createdAt,value
2023-05-15T00:00:25.446Z,12.92
2023-05-15T00:03:12.552Z,12.97
2023-05-15T00:05:59.354Z,13.01
2023-05-15T00:08:46.337Z,12.98
2023-05-15T00:11:33.296Z,12.93
2023-05-15T00:14:21.374Z,12.90
2023-05-15T00:17:08.266Z,12.89
2023-05-15T00:19:57.724Z,12.85
2023-05-15T00:22:44.546Z,12.78
2023-05-15T00:25:31.366Z,12.81
2023-05-15T00:28:18.344Z,12.90
2023-05-15T00:31:06.782Z,12.95
2023-05-15T00:33:53.719Z,12.88
2023-05-15T00:36:40.508Z,12.74
2023-05-15T00:39:27.255Z,12.78
2023-05-15T00:42:20.822Z,12.85
2023-05-15T00:45:11.624Z,12.88
2023-05-15T00:48:01.944Z,12.79
2023-05-15T00:50:48.782Z,12.84
2023-05-15T00:53:35.390Z,12.94
2023-05-15T00:56:22.726Z,12.92
2023-05-15T00:59:10.077Z,12.87
2023-05-15T01:01:57.125Z,12.69
2023-05-15T01:04:45.122Z,12.54
2023-05-15T01:07:35.317Z,12.48
2023-05-15T01:10:23.010Z,12.46
2023-05-15T01:13:10.794Z,12.47
2023-05-15T01:15:57.786Z,12.47
2023-05-15T01:18:44.670Z,12.35
2023-05-15T01:22:11.977Z,12.15
2023-05-15T01:25:15.274Z,11.98
2023-05-15T01:28:06.985Z,11.94
2023-05-15T01:30:56.112Z,11.84
2023-05-15T01:33:47.090Z,11.81
2023-05-15T01:36:38.861Z,11.77
2023-05-15T01:39:29.281Z,11.65
2023-05-15T01:42:20.534Z,11.56
2023-05-15T01:45:14.617Z,11.28
2023-05-15T01:48:06.561Z,11.14
2023-05-15T01:50:59.964Z,11.04
2023-05-15T01:53:48.654Z,11.16
2023-05-15T01:56:39.145Z,10.94
2023-05-15T01:59:27.816Z,11.26
2023-05-15T02:02:17.008Z,11.10
2023-05-15T02:05:06.358Z,11.16
2023-05-15T02:07:53.557Z,11.07
2023-05-15T02:10:49.088Z,11.05
2023-05-15T02:13:39.519Z,11.05
2023-05-15T02:16:27.214Z,10.91
2023-05-15T02:19:15.757Z,10.97
2023-05-15T02:22:02.826Z,10.98
2023-05-15T02:24:49.924Z,11.06
2023-05-15T02:27:45.494Z,11.01
2023-05-15T02:30:43.301Z,10.80
2023-05-15T02:33:39.611Z,10.99
2023-05-15T02:36:34.127Z,10.93
2023-05-15T02:39:23.646Z,10.80
2023-05-15T02:42:11.521Z,10.60
2023-05-15T02:44:59.214Z,10.41
2023-05-15T02:47:46.658Z,10.39
2023-05-15T02:50:33.681Z,10.32
2023-05-15T02:53:22.200Z,10.26
2023-05-15T02:56:10.123Z,10.31
2023-05-15T02:58:59.377Z,10.35
2023-05-15T03:01:46.933Z,10.39
2023-05-15T03:04:33.812Z,10.39
2023-05-15T03:07:20.592Z,10.38
2023-05-15T03:10:09.834Z,10.29
2023-05-15T03:12:59.126Z,10.33
2023-05-15T03:15:46.101Z,10.52
2023-05-15T03:18:32.855Z,10.51
2023-05-15T03:21:19.992Z,10.39
2023-05-15T03:24:06.773Z,10.31
2023-05-15T03:26:55.016Z,10.18
2023-05-15T03:29:41.686Z,10.02
2023-05-15T03:32:28.433Z,9.96
2023-05-15T03:35:15.255Z,10.00
2023-05-15T03:38:02.786Z,10.08
2023-05-15T03:40:50.978Z,10.01
2023-05-15T03:43:39.439Z,9.82
2023-05-15T03:46:26.551Z,9.81
2023-05-15T03:49:13.286Z,9.94
2023-05-15T03:52:01.063Z,9.93
2023-05-15T03:54:48.506Z,9.91
2023-05-15T03:57:35.761Z,9.86
2023-05-15T04:00:24.393Z,9.86
2023-05-15T04:03:12.693Z,9.83
2023-05-15T04:06:04.246Z,9.85
2023-05-15T04:08:51.333Z,9.90
2023-05-15T04:11:38.975Z,9.89
2023-05-15T04:14:28.228Z,9.75
2023-05-15T04:17:15.999Z,9.77
2023-05-15T04:20:02.733Z,9.72
2023-05-15T04:22:49.714Z,9.90
2023-05-15T04:25:36.621Z,9.78
2023-05-15T04:28:23.179Z,9.89
2023-05-15T04:31:10.149Z,9.88
2023-05-15T04:33:58.330Z,9.97
2023-05-15T04:36:45.081Z,10.11
2023-05-15T04:39:31.882Z,10.22
2023-05-15T04:42:21.619Z,10.45
2023-05-15T04:45:09.383Z,10.56
2023-05-15T04:47:57.108Z,10.80
2023-05-15T04:50:47.298Z,11.11
2023-05-15T04:53:34.023Z,11.31
2023-05-15T04:56:21.456Z,11.85
2023-05-15T04:59:10.366Z,12.12
2023-05-15T05:01:59.383Z,12.23
2023-05-15T05:04:46.460Z,12.25
2023-05-15T05:07:35.619Z,12.49
2023-05-15T05:10:25.298Z,12.64
2023-05-15T05:13:12.005Z,12.71
2023-05-15T05:16:01.160Z,12.61
2023-05-15T05:18:53.074Z,12.57
2023-05-15T05:21:40.089Z,12.55
2023-05-15T05:24:30.716Z,12.40
2023-05-15T05:27:17.392Z,12.37
2023-05-15T05:30:12.302Z,12.42
2023-05-15T05:32:58.746Z,12.37
2023-05-15T05:35:45.687Z,12.17
2023-05-15T05:38:34.824Z,12.13
2023-05-15T05:41:28.094Z,12.07
2023-05-15T05:44:14.448Z,12.20
2023-05-15T05:47:04.611Z,12.30
2023-05-15T05:49:52.059Z,12.42
2023-05-15T05:52:39.012Z,12.46
2023-05-15T05:55:30.505Z,12.57
2023-05-15T05:58:26.084Z,12.56
2023-05-15T06:01:17.198Z,12.50
2023-05-15T06:04:03.722Z,12.55
2023-05-15T06:06:53.888Z,12.76
2023-05-15T06:09:40.490Z,12.78
2023-05-15T06:12:28.919Z,12.78
2023-05-15T06:15:17.662Z,12.98
2023-05-15T06:18:04.868Z,13.21
2023-05-15T06:20:53.746Z,13.44
2023-05-15T06:23:44.698Z,13.67
2023-05-15T06:26:35.904Z,14.10
2023-05-15T06:29:23.193Z,14.28
2023-05-15T06:32:13.811Z,14.83
2023-05-15T06:35:02.892Z,15.05
2023-05-15T06:37:53.356Z,15.40
2023-05-15T06:40:42.056Z,15.62
2023-05-15T06:43:28.750Z,15.77
2023-05-15T06:46:22.659Z,15.76
2023-05-15T06:49:11.574Z,15.80
2023-05-15T06:51:58.493Z,15.96
2023-05-15T06:54:45.169Z,16.31
2023-05-15T06:57:36.441Z,16.76
2023-05-15T07:00:25.825Z,17.34
2023-05-15T07:03:14.592Z,17.48
2023-05-15T07:06:04.619Z,17.81
2023-05-15T07:08:52.089Z,17.95
2023-05-15T07:11:39.080Z,18.25
2023-05-15T07:14:28.583Z,18.34
2023-05-15T07:17:16.448Z,18.37
2023-05-15T07:20:08.848Z,18.18
2023-05-15T07:22:58.481Z,18.35
2023-05-15T07:25:46.204Z,18.67
2023-05-15T07:28:32.866Z,18.98
2023-05-15T07:31:22.316Z,19.07
2023-05-15T07:34:13.092Z,19.35
2023-05-15T07:36:59.559Z,19.10
2023-05-15T07:39:47.812Z,19.41
2023-05-15T07:42:36.788Z,19.44
2023-05-15T07:45:25.993Z,19.45
2023-05-15T07:48:16.597Z,19.36
2023-05-15T07:51:06.009Z,19.11
2023-05-15T07:53:52.574Z,19.26
2023-05-15T07:56:41.525Z,19.07
2023-05-15T07:59:28.375Z,19.06
2023-05-15T08:02:15.084Z,19.03
2023-05-15T08:05:04.328Z,19.16
2023-05-15T08:07:53.574Z,19.37
2023-05-15T08:10:47.959Z,19.52
2023-05-15T08:13:36.008Z,19.76
2023-05-15T08:16:24.872Z,19.95
2023-05-15T08:19:13.748Z,20.13
2023-05-15T08:22:00.171Z,19.95
2023-05-15T08:24:47.230Z,20.08
2023-05-15T08:27:34.338Z,20.14
2023-05-15T08:30:22.706Z,20.07
2023-05-15T08:33:09.276Z,20.07
2023-05-15T08:35:56.032Z,20.18
2023-05-15T08:38:42.986Z,20.07
2023-05-15T08:44:24.654Z,20.03
2023-05-15T08:47:15.620Z,19.77
2023-05-15T08:50:07.727Z,19.80
2023-05-15T08:52:58.470Z,19.76
2023-05-15T08:55:45.559Z,19.69
2023-05-15T08:58:33.534Z,19.40
2023-05-15T09:01:20.073Z,19.32
2023-05-15T09:04:10.935Z,19.22
2023-05-15T09:07:02.696Z,19.22
2023-05-15T09:09:51.875Z,19.35
2023-05-15T09:12:46.377Z,19.40
2023-05-15T09:15:34.140Z,19.29
2023-05-15T09:18:21.496Z,19.52
2023-05-15T09:21:27.638Z,19.55
2023-05-15T09:24:19.145Z,19.70
2023-05-15T09:27:08.134Z,19.80
2023-05-15T09:29:56.627Z,20.16
2023-05-15T09:32:44.352Z,20.44
2023-05-15T09:35:33.204Z,20.55
2023-05-15T09:38:20.932Z,20.56
2023-05-15T09:41:09.370Z,20.57
2023-05-15T09:43:57.182Z,20.58
2023-05-15T09:46:44.303Z,20.44
2023-05-15T09:49:33.138Z,20.47
2023-05-15T09:52:25.736Z,20.43
2023-05-15T09:55:21.238Z,20.22
2023-05-15T09:58:11.360Z,20.30
2023-05-15T10:01:00.972Z,20.23
2023-05-15T10:04:05.718Z,19.96
2023-05-15T10:06:55.717Z,19.92
2023-05-15T10:09:44.499Z,20.05
2023-05-15T10:12:36.793Z,20.02
2023-05-15T10:15:24.111Z,19.98
2023-05-15T10:18:12.518Z,19.96
2023-05-15T10:21:18.503Z,19.80
2023-05-15T10:24:06.337Z,19.63
2023-05-15T10:26:58.012Z,19.79
2023-05-15T10:29:49.603Z,19.92
2023-05-15T10:32:44.276Z,20.15
2023-05-15T10:35:33.875Z,20.12
2023-05-15T10:38:22.608Z,20.11
2023-05-15T10:41:17.621Z,20.36
2023-05-15T10:44:09.008Z,20.40
2023-05-15T10:47:01.698Z,20.70
2023-05-15T10:49:48.616Z,20.76
2023-05-15T10:52:40.780Z,20.95
2023-05-15T10:55:27.489Z,21.12
2023-05-15T10:58:17.286Z,21.23
2023-05-15T11:01:04.193Z,21.17
2023-05-15T11:03:54.679Z,21.43
2023-05-15T11:06:47.810Z,21.61
2023-05-15T11:09:43.436Z,21.81
2023-05-15T11:13:03.126Z,21.89
2023-05-15T11:15:52.944Z,22.18
2023-05-15T11:18:40.338Z,22.24
2023-05-15T11:21:35.502Z,22.24
2023-05-15T11:24:22.526Z,22.41
2023-05-15T11:27:11.750Z,22.50
2023-05-15T11:30:12.473Z,22.37
2023-05-15T11:33:11.462Z,22.67
2023-05-15T11:36:00.379Z,22.80
2023-05-15T11:38:53.847Z,23.07
2023-05-15T11:41:43.492Z,23.18
2023-05-15T11:44:33.001Z,23.05
2023-05-15T11:47:24.567Z,23.06
2023-05-15T11:50:13.951Z,23.40
2023-05-15T11:53:07.903Z,23.47
2023-05-15T11:55:58.259Z,23.54
2023-05-15T11:58:44.930Z,23.57
2023-05-15T12:01:40.610Z,23.91
2023-05-15T12:04:27.486Z,24.01
2023-05-15T12:07:21.631Z,24.12
2023-05-15T12:10:08.651Z,24.32
2023-05-15T12:12:56.874Z,24.47
2023-05-15T12:15:47.054Z,24.83
2023-05-15T12:18:39.116Z,24.71
2023-05-15T12:21:28.061Z,24.79
2023-05-15T12:24:15.046Z,24.81
2023-05-15T12:27:05.299Z,24.67
2023-05-15T12:29:53.321Z,24.60
2023-05-15T12:32:43.835Z,24.39
2023-05-15T12:35:32.963Z,24.05
2023-05-15T12:38:21.742Z,23.61
2023-05-15T12:41:12.107Z,23.37
2023-05-15T12:44:00.037Z,22.94
2023-05-15T12:50:19.314Z,21.01
2023-05-15T12:53:19.534Z,20.14
2023-05-15T12:56:11.587Z,18.69
2023-05-15T12:58:58.287Z,18.46
2023-05-15T13:01:54.149Z,18.45
2023-05-15T13:04:41.560Z,18.15
2023-05-15T13:07:28.345Z,17.60
2023-05-15T13:10:18.415Z,17.34
2023-05-15T13:13:05.496Z,17.05
2023-05-15T13:16:03.161Z,16.98
2023-05-15T13:18:56.401Z,16.26
2023-05-15T13:21:46.351Z,16.71
2023-05-15T13:24:33.187Z,16.52
2023-05-15T13:27:20.418Z,16.31
2023-05-15T13:30:10.972Z,16.35
2023-05-15T13:33:01.062Z,15.93
2023-05-15T13:36:38.450Z,16.08
2023-05-15T13:39:26.697Z,15.99
2023-05-15T13:42:15.640Z,16.19
2023-05-15T13:45:21.130Z,16.10
2023-05-15T13:48:12.256Z,15.96
2023-05-15T13:51:12.114Z,15.96
2023-05-15T13:54:01.086Z,15.97
2023-05-15T13:56:51.527Z,16.12
2023-05-15T13:59:38.193Z,16.10
2023-05-15T14:02:26.612Z,15.95
2023-05-15T14:05:15.358Z,15.53
2023-05-15T14:08:02.225Z,15.85
2023-05-15T14:10:53.212Z,15.90
2023-05-15T14:13:42.430Z,16.20
2023-05-15T14:16:31.655Z,16.20
2023-05-15T14:19:18.841Z,16.23
2023-05-15T14:22:11.902Z,16.25
2023-05-15T14:25:05.977Z,16.23
2023-05-15T14:27:52.512Z,16.50
2023-05-15T14:30:41.856Z,16.43
2023-05-15T14:33:31.189Z,16.64
2023-05-15T14:36:17.749Z,16.67
2023-05-15T14:39:05.607Z,16.82
2023-05-15T14:41:52.265Z,17.02
2023-05-15T14:44:40.765Z,16.85
2023-05-15T14:47:35.038Z,16.89
2023-05-15T14:50:21.559Z,17.08
2023-05-15T14:53:08.458Z,17.16
2023-05-15T14:56:00.914Z,16.86
2023-05-15T14:58:58.462Z,16.99
2023-05-15T15:01:46.563Z,16.99
2023-05-15T15:04:55.611Z,16.93
2023-05-15T15:08:09.197Z,17.06
2023-05-15T15:10:56.144Z,16.92
2023-05-15T15:13:58.655Z,16.94
2023-05-15T15:16:47.615Z,16.86
2023-05-15T15:19:37.216Z,16.87
2023-05-15T15:22:32.451Z,16.96
2023-05-15T15:25:21.514Z,17.02
2023-05-15T15:28:08.490Z,17.07
2023-05-15T15:30:55.824Z,17.11
2023-05-15T15:33:45.264Z,17.13
2023-05-15T15:36:32.537Z,17.23
2023-05-15T15:39:23.052Z,17.26
2023-05-15T15:42:14.429Z,17.26
2023-05-15T15:45:02.095Z,17.67
2023-05-15T15:47:49.683Z,17.81
2023-05-15T15:50:38.740Z,17.98
2023-05-15T15:53:25.597Z,17.98
2023-05-15T15:56:18.141Z,17.88
2023-05-15T15:59:05.040Z,17.84
2023-05-15T16:01:54.290Z,17.91
2023-05-15T16:04:41.662Z,18.05
2023-05-15T16:07:28.474Z,18.06
2023-05-15T16:10:17.493Z,18.14
2023-05-15T16:13:05.519Z,18.31
2023-05-15T16:15:54.819Z,18.12
2023-05-15T16:18:43.832Z,18.08
2023-05-15T16:21:31.494Z,18.10
2023-05-15T16:24:18.200Z,18.22
2023-05-15T16:27:05.862Z,18.23
2023-05-15T16:29:56.794Z,18.25
2023-05-15T16:32:44.760Z,18.48
2023-05-15T16:35:42.943Z,18.21
2023-05-15T16:38:33.907Z,18.00
2023-05-15T16:41:22.077Z,18.04
2023-05-15T16:44:11.735Z,18.02
2023-05-15T16:47:00.408Z,18.01
2023-05-15T16:49:50.291Z,17.95
2023-05-15T16:52:46.284Z,18.08
2023-05-15T16:55:34.107Z,18.07
2023-05-15T16:58:21.020Z,18.26
2023-05-15T17:01:08.589Z,18.17
2023-05-15T17:04:04.462Z,18.10
2023-05-15T17:06:53.670Z,18.22
2023-05-15T17:09:43.615Z,18.12
2023-05-15T17:12:32.889Z,18.09
2023-05-15T17:15:26.937Z,18.07
2023-05-15T17:18:20.871Z,18.04
2023-05-15T17:21:11.889Z,18.07
2023-05-15T17:24:01.227Z,17.95
2023-05-15T17:26:48.488Z,17.81
2023-05-15T17:29:36.287Z,17.79
2023-05-15T17:32:26.516Z,17.71
2023-05-15T17:35:19.991Z,17.45
2023-05-15T17:38:17.640Z,17.57
2023-05-15T17:41:11.650Z,17.59
2023-05-15T17:43:58.442Z,17.59
2023-05-15T17:46:46.868Z,17.59
2023-05-15T17:49:37.118Z,17.43
2023-05-15T17:52:24.714Z,17.31
2023-05-15T17:55:16.006Z,17.28
2023-05-15T17:58:05.143Z,17.34
2023-05-15T18:00:58.069Z,17.18
2023-05-15T18:03:44.827Z,17.07
2023-05-15T18:06:35.988Z,16.94
2023-05-15T18:09:26.673Z,16.79
2023-05-15T18:12:21.123Z,16.59
2023-05-15T18:15:13.044Z,16.51
2023-05-15T18:18:01.013Z,16.43
2023-05-15T18:20:50.374Z,16.36
2023-05-15T18:24:04.988Z,16.23
2023-05-15T18:26:51.752Z,16.14
2023-05-15T18:29:43.859Z,16.12
2023-05-15T18:32:31.969Z,16.04
2023-05-15T18:35:19.249Z,15.97
2023-05-15T18:38:08.966Z,15.88
2023-05-15T18:40:58.070Z,15.89
2023-05-15T18:43:44.596Z,15.81
2023-05-15T18:46:34.562Z,15.83
2023-05-15T18:49:21.550Z,15.77
2023-05-15T18:52:16.165Z,15.67
2023-05-15T18:55:02.781Z,15.64
2023-05-15T18:57:49.462Z,15.53
2023-05-15T19:00:38.984Z,15.45
2023-05-15T19:03:27.472Z,15.37
2023-05-15T19:06:19.778Z,15.42
2023-05-15T19:09:10.426Z,15.37
2023-05-15T19:11:57.930Z,15.37
2023-05-15T19:14:47.148Z,15.39
2023-05-15T19:17:38.014Z,15.40
2023-05-15T19:20:26.736Z,15.38
2023-05-15T19:23:16.044Z,15.29
2023-05-15T19:26:02.614Z,15.09
2023-05-15T19:28:53.022Z,14.98
2023-05-15T19:31:40.151Z,14.95
2023-05-15T19:34:26.947Z,14.90
2023-05-15T19:37:15.351Z,14.88
2023-05-15T19:40:01.854Z,14.83
2023-05-15T19:42:48.728Z,14.85
2023-05-15T19:45:37.947Z,14.75
2023-05-15T19:48:51.702Z,14.79
2023-05-15T19:51:41.139Z,14.81
2023-05-15T19:54:29.147Z,14.69
2023-05-15T19:57:15.778Z,14.79
2023-05-15T20:00:05.058Z,14.68
2023-05-15T20:02:54.046Z,14.73
2023-05-15T20:05:41.503Z,14.67
2023-05-15T20:08:30.816Z,14.62
2023-05-15T20:11:20.009Z,14.57
2023-05-15T20:14:08.786Z,14.59
2023-05-15T20:16:55.666Z,14.48
2023-05-15T20:19:42.693Z,14.42
2023-05-15T20:22:29.482Z,14.29
2023-05-15T20:25:18.848Z,14.30
2023-05-15T20:28:16.624Z,14.37
2023-05-15T20:31:03.330Z,14.26
2023-05-15T20:33:54.478Z,14.13
2023-05-15T20:36:43.485Z,14.19
2023-05-15T20:39:32.515Z,14.22
2023-05-15T20:42:21.529Z,14.17
2023-05-15T20:45:12.283Z,14.06
2023-05-15T20:47:59.747Z,14.02
2023-05-15T20:50:46.711Z,13.97
2023-05-15T20:53:37.048Z,14.02
2023-05-15T20:56:23.510Z,14.01
2023-05-15T20:59:12.490Z,13.91
2023-05-15T21:02:00.624Z,13.93
2023-05-15T21:04:47.885Z,13.97
2023-05-15T21:07:34.376Z,14.03
2023-05-15T21:10:23.736Z,13.86
2023-05-15T21:13:10.415Z,13.77
2023-05-15T21:15:57.270Z,13.82
2023-05-15T21:18:49.138Z,13.78
2023-05-15T21:21:38.687Z,13.73
2023-05-15T21:24:27.771Z,13.72
2023-05-15T21:27:17.147Z,13.64
2023-05-15T21:30:08.704Z,13.63
2023-05-15T21:32:57.514Z,13.63
2023-05-15T21:35:48.891Z,13.61
2023-05-15T21:38:35.589Z,13.54
2023-05-15T21:41:22.535Z,13.41
2023-05-15T21:44:20.570Z,13.56
2023-05-15T21:47:20.285Z,13.57
2023-05-15T21:50:08.435Z,13.61
2023-05-15T21:52:57.329Z,13.48
2023-05-15T21:55:44.382Z,13.43
2023-05-15T21:58:33.585Z,13.40
2023-05-15T22:01:20.712Z,13.34
2023-05-15T22:04:09.729Z,13.25
2023-05-15T22:06:59.475Z,13.25
2023-05-15T22:09:49.867Z,13.12
2023-05-15T22:12:37.773Z,13.10
2023-05-15T22:15:26.558Z,13.01
2023-05-15T22:18:13.983Z,12.98
2023-05-15T22:21:03.671Z,13.07
2023-05-15T22:23:50.423Z,13.04
2023-05-15T22:26:38.690Z,12.89
2023-05-15T22:29:25.260Z,13.06
2023-05-15T22:32:12.142Z,12.85
2023-05-15T22:34:59.181Z,12.95
2023-05-15T22:37:53.746Z,12.82
2023-05-15T22:40:41.273Z,12.79
2023-05-15T22:43:29.295Z,12.81
2023-05-15T22:46:16.756Z,12.80
2023-05-15T22:49:04.628Z,12.80
2023-05-15T22:51:51.472Z,12.78
2023-05-15T22:54:41.112Z,12.77
2023-05-15T22:57:27.940Z,12.74
2023-05-15T23:00:17.114Z,12.83
2023-05-15T23:03:03.721Z,12.87
2023-05-15T23:05:50.743Z,12.83
2023-05-15T23:08:37.340Z,12.71
2023-05-15T23:11:26.775Z,12.77
2023-05-15T23:14:15.023Z,12.70
2023-05-15T23:17:08.083Z,12.62
2023-05-15T23:19:54.572Z,12.55
2023-05-15T23:22:41.478Z,12.51
2023-05-15T23:25:30.649Z,12.42
2023-05-15T23:28:17.078Z,12.55
2023-05-15T23:31:03.951Z,12.52
2023-05-15T23:33:52.151Z,12.60
2023-05-15T23:36:38.991Z,12.59
2023-05-15T23:39:28.125Z,12.56
2023-05-15T23:42:15.080Z,12.54
2023-05-15T23:45:02.207Z,12.60
2023-05-15T23:47:49.032Z,12.68
2023-05-15T23:50:37.525Z,12.81
2023-05-15T23:53:24.137Z,12.88
2023-05-15T23:56:10.938Z,12.97
2023-05-15T23:58:58.008Z,12.97
